sensor_id;sensor_type;location;lat;lon;timestamp;temperature;humidity
4759;DHT22;2393;50.560;12.636;2022-08-19T00:01:55;19.30;99.90
4759;DHT22;2393;50.560;12.636;2022-08-19T00:04:27;19.30;99.90
4759;DHT22;2393;50.560;12.636;2022-08-19T00:06:56;19.30;99.90
4759;DHT22;2393;50.560;12.636;2022-08-19T00:09:26;19.30;99.90
4759;DHT22;2393;50.560;12.636;2022-08-19T00:11:54;19.30;99.90
4759;DHT22;2393;50.560;12.636;2022-08-19T00:14:25;19.20;99.90
4759;DHT22;2393;50.560;12.636;2022-08-19T00:16:54;19.20;99.90
4759;DHT22;2393;50.560;12.636;2022-08-19T00:19:23;19.10;99.90
4759;DHT22;2393;50.560;12.636;2022-08-19T00:21:52;19.20;99.90
4759;DHT22;2393;50.560;12.636;2022-08-19T00:24:21;19.20;99.90
4759;DHT22;2393;50.560;12.636;2022-08-19T00:26:49;19.20;99.90
4759;DHT22;2393;50.560;12.636;2022-08-19T00:29:20;19.10;99.90
4759;DHT22;2393;50.560;12.636;2022-08-19T00:31:49;19.10;99.90
4759;DHT22;2393;50.560;12.636;2022-08-19T00:34:19;19.10;99.90
4759;DHT22;2393;50.560;12.636;2022-08-19T00:36:48;19.10;99.90
4759;DHT22;2393;50.560;12.636;2022-08-19T00:39:18;19.10;99.90
4759;DHT22;2393;50.560;12.636;2022-08-19T00:41:47;19.10;99.90
4759;DHT22;2393;50.560;12.636;2022-08-19T00:44:18;19.10;99.90
4759;DHT22;2393;50.560;12.636;2022-08-19T00:46:54;19.20;99.90
4759;DHT22;2393;50.560;12.636;2022-08-19T00:49:28;19.20;99.90
4759;DHT22;2393;50.560;12.636;2022-08-19T00:52:02;19.30;99.90
4759;DHT22;2393;50.560;12.636;2022-08-19T00:54:32;19.30;99.90
4759;DHT22;2393;50.560;12.636;2022-08-19T00:57:01;19.30;99.90
4759;DHT22;2393;50.560;12.636;2022-08-19T00:59:29;19.30;99.90
4759;DHT22;2393;50.560;12.636;2022-08-19T01:02:18;19.30;99.90
4759;DHT22;2393;50.560;12.636;2022-08-19T01:04:46;19.40;99.90
4759;DHT22;2393;50.560;12.636;2022-08-19T01:07:15;19.30;99.90
4759;DHT22;2393;50.560;12.636;2022-08-19T01:09:47;19.30;99.90
4759;DHT22;2393;50.560;12.636;2022-08-19T01:12:15;19.40;99.90
4759;DHT22;2393;50.560;12.636;2022-08-19T01:14:45;19.40;99.90
4759;DHT22;2393;50.560;12.636;2022-08-19T01:17:14;19.40;99.90
4759;DHT22;2393;50.560;12.636;2022-08-19T01:19:43;19.40;99.90
4759;DHT22;2393;50.560;12.636;2022-08-19T01:22:18;19.40;99.90
4759;DHT22;2393;50.560;12.636;2022-08-19T01:24:58;19.40;99.90
4759;DHT22;2393;50.560;12.636;2022-08-19T01:27:26;19.40;99.90
4759;DHT22;2393;50.560;12.636;2022-08-19T01:30:08;19.40;99.90
4759;DHT22;2393;50.560;12.636;2022-08-19T01:32:36;19.30;99.90
4759;DHT22;2393;50.560;12.636;2022-08-19T01:35:05;19.30;99.90
4759;DHT22;2393;50.560;12.636;2022-08-19T01:37:42;19.30;99.90
4759;DHT22;2393;50.560;12.636;2022-08-19T01:40:12;19.30;99.90
4759;DHT22;2393;50.560;12.636;2022-08-19T01:42:40;19.30;99.90
4759;DHT22;2393;50.560;12.636;2022-08-19T01:45:09;19.40;99.90
4759;DHT22;2393;50.560;12.636;2022-08-19T01:47:37;19.30;99.90
4759;DHT22;2393;50.560;12.636;2022-08-19T01:50:07;19.40;99.90
4759;DHT22;2393;50.560;12.636;2022-08-19T01:52:36;19.40;99.90
4759;DHT22;2393;50.560;12.636;2022-08-19T01:55:06;19.40;99.90
4759;DHT22;2393;50.560;12.636;2022-08-19T01:57:36;19.40;99.90
4759;DHT22;2393;50.560;12.636;2022-08-19T02:00:08;19.40;99.90
4759;DHT22;2393;50.560;12.636;2022-08-19T02:02:39;19.40;99.90
4759;DHT22;2393;50.560;12.636;2022-08-19T02:05:11;19.40;99.90
4759;DHT22;2393;50.560;12.636;2022-08-19T02:07:39;19.40;99.90
4759;DHT22;2393;50.560;12.636;2022-08-19T02:10:10;19.40;99.90
4759;DHT22;2393;50.560;12.636;2022-08-19T02:12:43;19.40;99.90
4759;DHT22;2393;50.560;12.636;2022-08-19T02:15:13;19.40;99.90
4759;DHT22;2393;50.560;12.636;2022-08-19T02:17:41;19.40;99.90
4759;DHT22;2393;50.560;12.636;2022-08-19T02:20:10;19.40;99.90
4759;DHT22;2393;50.560;12.636;2022-08-19T02:22:40;19.40;99.90
4759;DHT22;2393;50.560;12.636;2022-08-19T02:25:09;19.40;99.90
4759;DHT22;2393;50.560;12.636;2022-08-19T02:27:37;19.40;99.90
4759;DHT22;2393;50.560;12.636;2022-08-19T02:30:11;19.40;99.90
4759;DHT22;2393;50.560;12.636;2022-08-19T02:32:40;19.40;99.90
4759;DHT22;2393;50.560;12.636;2022-08-19T02:35:11;19.40;99.90
4759;DHT22;2393;50.560;12.636;2022-08-19T02:37:39;19.40;99.90
4759;DHT22;2393;50.560;12.636;2022-08-19T02:40:29;19.40;99.90
4759;DHT22;2393;50.560;12.636;2022-08-19T02:43:00;19.40;99.90
4759;DHT22;2393;50.560;12.636;2022-08-19T02:45:33;19.40;99.90
4759;DHT22;2393;50.560;12.636;2022-08-19T02:48:06;19.40;99.90
4759;DHT22;2393;50.560;12.636;2022-08-19T02:50:48;19.40;99.90
4759;DHT22;2393;50.560;12.636;2022-08-19T02:53:19;19.40;99.90
4759;DHT22;2393;50.560;12.636;2022-08-19T02:55:49;19.40;99.90
4759;DHT22;2393;50.560;12.636;2022-08-19T02:58:18;19.40;99.90
4759;DHT22;2393;50.560;12.636;2022-08-19T03:00:50;19.40;99.90
4759;DHT22;2393;50.560;12.636;2022-08-19T03:03:19;19.40;99.90
4759;DHT22;2393;50.560;12.636;2022-08-19T03:05:48;19.40;99.90
4759;DHT22;2393;50.560;12.636;2022-08-19T03:08:23;19.40;99.90
4759;DHT22;2393;50.560;12.636;2022-08-19T03:10:52;19.40;99.90
4759;DHT22;2393;50.560;12.636;2022-08-19T03:13:21;19.40;99.90
4759;DHT22;2393;50.560;12.636;2022-08-19T03:15:51;19.40;99.90
4759;DHT22;2393;50.560;12.636;2022-08-19T03:18:19;19.40;99.90
4759;DHT22;2393;50.560;12.636;2022-08-19T03:20:51;19.40;99.90
4759;DHT22;2393;50.560;12.636;2022-08-19T03:23:22;19.40;99.90
4759;DHT22;2393;50.560;12.636;2022-08-19T03:25:51;19.40;99.90
4759;DHT22;2393;50.560;12.636;2022-08-19T03:28:41;19.40;99.90
4759;DHT22;2393;50.560;12.636;2022-08-19T03:31:21;19.40;99.90
4759;DHT22;2393;50.560;12.636;2022-08-19T03:34:10;19.40;99.90
4759;DHT22;2393;50.560;12.636;2022-08-19T03:36:39;19.40;99.90
4759;DHT22;2393;50.560;12.636;2022-08-19T03:39:09;19.40;99.90
4759;DHT22;2393;50.560;12.636;2022-08-19T03:41:39;19.40;99.90
4759;DHT22;2393;50.560;12.636;2022-08-19T03:44:11;19.40;99.90
4759;DHT22;2393;50.560;12.636;2022-08-19T03:46:46;19.40;99.90
4759;DHT22;2393;50.560;12.636;2022-08-19T03:49:15;19.40;99.90
4759;DHT22;2393;50.560;12.636;2022-08-19T03:51:45;19.40;99.90
4759;DHT22;2393;50.560;12.636;2022-08-19T03:54:17;19.40;99.90
4759;DHT22;2393;50.560;12.636;2022-08-19T03:56:47;19.40;99.90
4759;DHT22;2393;50.560;12.636;2022-08-19T03:59:19;19.40;99.90
4759;DHT22;2393;50.560;12.636;2022-08-19T04:01:49;19.40;99.90
4759;DHT22;2393;50.560;12.636;2022-08-19T04:04:17;19.40;99.90
4759;DHT22;2393;50.560;12.636;2022-08-19T04:06:46;19.40;99.90
4759;DHT22;2393;50.560;12.636;2022-08-19T04:09:14;19.40;99.90
4759;DHT22;2393;50.560;12.636;2022-08-19T04:11:45;19.40;99.90
4759;DHT22;2393;50.560;12.636;2022-08-19T04:14:16;19.40;99.90
4759;DHT22;2393;50.560;12.636;2022-08-19T04:16:45;19.40;99.90
4759;DHT22;2393;50.560;12.636;2022-08-19T04:19:16;19.30;99.90
4759;DHT22;2393;50.560;12.636;2022-08-19T04:21:46;19.40;99.90
4759;DHT22;2393;50.560;12.636;2022-08-19T04:24:15;19.30;99.90
4759;DHT22;2393;50.560;12.636;2022-08-19T04:26:44;19.30;99.90
4759;DHT22;2393;50.560;12.636;2022-08-19T04:29:14;19.30;99.90
4759;DHT22;2393;50.560;12.636;2022-08-19T04:31:43;19.30;99.90
4759;DHT22;2393;50.560;12.636;2022-08-19T04:34:15;19.30;99.90
4759;DHT22;2393;50.560;12.636;2022-08-19T04:36:44;19.30;99.90
4759;DHT22;2393;50.560;12.636;2022-08-19T04:39:15;19.30;99.90
4759;DHT22;2393;50.560;12.636;2022-08-19T04:41:44;19.20;99.90
4759;DHT22;2393;50.560;12.636;2022-08-19T04:44:34;19.20;99.90
4759;DHT22;2393;50.560;12.636;2022-08-19T04:47:12;19.20;99.90
4759;DHT22;2393;50.560;12.636;2022-08-19T04:49:41;19.20;99.90
4759;DHT22;2393;50.560;12.636;2022-08-19T04:52:09;19.20;99.90
4759;DHT22;2393;50.560;12.636;2022-08-19T04:54:37;19.20;99.90
4759;DHT22;2393;50.560;12.636;2022-08-19T04:57:07;19.20;99.90
4759;DHT22;2393;50.560;12.636;2022-08-19T04:59:37;19.20;99.90
4759;DHT22;2393;50.560;12.636;2022-08-19T05:02:07;19.20;99.90
4759;DHT22;2393;50.560;12.636;2022-08-19T05:04:36;19.20;99.90
4759;DHT22;2393;50.560;12.636;2022-08-19T05:07:07;19.20;99.90
4759;DHT22;2393;50.560;12.636;2022-08-19T05:09:36;19.20;99.90
4759;DHT22;2393;50.560;12.636;2022-08-19T05:12:24;19.20;99.90
4759;DHT22;2393;50.560;12.636;2022-08-19T05:14:55;19.20;99.90
4759;DHT22;2393;50.560;12.636;2022-08-19T05:17:24;19.20;99.90
4759;DHT22;2393;50.560;12.636;2022-08-19T05:19:56;19.20;99.90
4759;DHT22;2393;50.560;12.636;2022-08-19T05:22:44;19.20;99.90
4759;DHT22;2393;50.560;12.636;2022-08-19T05:25:16;19.20;99.90
4759;DHT22;2393;50.560;12.636;2022-08-19T05:27:45;19.20;99.90
4759;DHT22;2393;50.560;12.636;2022-08-19T05:30:14;19.30;99.90
4759;DHT22;2393;50.560;12.636;2022-08-19T05:32:42;19.30;99.90
4759;DHT22;2393;50.560;12.636;2022-08-19T05:35:10;19.30;99.90
4759;DHT22;2393;50.560;12.636;2022-08-19T05:37:39;19.30;99.90
4759;DHT22;2393;50.560;12.636;2022-08-19T05:40:09;19.30;99.90
4759;DHT22;2393;50.560;12.636;2022-08-19T05:42:37;19.30;99.90
4759;DHT22;2393;50.560;12.636;2022-08-19T05:45:07;19.30;99.90
4759;DHT22;2393;50.560;12.636;2022-08-19T05:47:35;19.30;99.90
4759;DHT22;2393;50.560;12.636;2022-08-19T05:50:08;19.30;99.90
4759;DHT22;2393;50.560;12.636;2022-08-19T05:52:37;19.30;99.90
4759;DHT22;2393;50.560;12.636;2022-08-19T05:55:21;19.30;99.90
4759;DHT22;2393;50.560;12.636;2022-08-19T05:57:50;19.30;99.90
4759;DHT22;2393;50.560;12.636;2022-08-19T06:00:18;19.30;99.90
4759;DHT22;2393;50.560;12.636;2022-08-19T06:02:50;19.30;99.90
4759;DHT22;2393;50.560;12.636;2022-08-19T06:05:19;19.30;99.90
4759;DHT22;2393;50.560;12.636;2022-08-19T06:07:47;19.30;99.90
4759;DHT22;2393;50.560;12.636;2022-08-19T06:10:17;19.30;99.90
4759;DHT22;2393;50.560;12.636;2022-08-19T06:12:59;19.30;99.90
4759;DHT22;2393;50.560;12.636;2022-08-19T06:15:28;19.30;99.90
4759;DHT22;2393;50.560;12.636;2022-08-19T06:17:58;19.30;99.90
4759;DHT22;2393;50.560;12.636;2022-08-19T06:20:27;19.30;99.90
4759;DHT22;2393;50.560;12.636;2022-08-19T06:23:16;19.30;99.90
4759;DHT22;2393;50.560;12.636;2022-08-19T06:25:44;19.30;99.90
4759;DHT22;2393;50.560;12.636;2022-08-19T06:28:14;19.30;99.90
4759;DHT22;2393;50.560;12.636;2022-08-19T06:30:42;19.30;99.90
4759;DHT22;2393;50.560;12.636;2022-08-19T06:33:11;19.30;99.90
4759;DHT22;2393;50.560;12.636;2022-08-19T06:35:39;19.30;99.90
4759;DHT22;2393;50.560;12.636;2022-08-19T06:38:08;19.30;99.90
4759;DHT22;2393;50.560;12.636;2022-08-19T06:40:36;19.30;99.90
4759;DHT22;2393;50.560;12.636;2022-08-19T06:43:05;19.40;99.90
4759;DHT22;2393;50.560;12.636;2022-08-19T06:45:37;19.40;99.90
4759;DHT22;2393;50.560;12.636;2022-08-19T06:48:13;19.40;99.90
4759;DHT22;2393;50.560;12.636;2022-08-19T06:50:44;19.40;99.90
4759;DHT22;2393;50.560;12.636;2022-08-19T06:53:12;19.40;99.90
4759;DHT22;2393;50.560;12.636;2022-08-19T06:55:40;19.40;99.90
4759;DHT22;2393;50.560;12.636;2022-08-19T06:58:08;19.40;99.90
4759;DHT22;2393;50.560;12.636;2022-08-19T07:00:39;19.40;99.90
4759;DHT22;2393;50.560;12.636;2022-08-19T07:03:07;19.40;99.90
4759;DHT22;2393;50.560;12.636;2022-08-19T07:05:39;19.40;99.90
4759;DHT22;2393;50.560;12.636;2022-08-19T07:08:11;19.40;99.90
4759;DHT22;2393;50.560;12.636;2022-08-19T07:10:43;19.40;99.90
4759;DHT22;2393;50.560;12.636;2022-08-19T07:13:11;19.40;99.90
4759;DHT22;2393;50.560;12.636;2022-08-19T07:15:40;19.40;99.90
4759;DHT22;2393;50.560;12.636;2022-08-19T07:18:10;19.40;99.90
4759;DHT22;2393;50.560;12.636;2022-08-19T07:20:38;19.30;99.90
4759;DHT22;2393;50.560;12.636;2022-08-19T07:23:08;19.40;99.90
4759;DHT22;2393;50.560;12.636;2022-08-19T07:25:47;19.40;99.90
4759;DHT22;2393;50.560;12.636;2022-08-19T07:28:18;19.40;99.90
4759;DHT22;2393;50.560;12.636;2022-08-19T07:30:51;19.50;99.90
4759;DHT22;2393;50.560;12.636;2022-08-19T07:33:19;19.50;99.90
4759;DHT22;2393;50.560;12.636;2022-08-19T07:35:48;19.50;99.90
4759;DHT22;2393;50.560;12.636;2022-08-19T07:38:16;19.50;99.90
4759;DHT22;2393;50.560;12.636;2022-08-19T07:40:45;19.50;99.90
4759;DHT22;2393;50.560;12.636;2022-08-19T07:43:13;19.50;99.90
4759;DHT22;2393;50.560;12.636;2022-08-19T07:45:44;19.60;99.90
4759;DHT22;2393;50.560;12.636;2022-08-19T07:48:14;19.60;99.90
4759;DHT22;2393;50.560;12.636;2022-08-19T07:50:43;19.60;99.90
4759;DHT22;2393;50.560;12.636;2022-08-19T07:53:11;19.60;99.90
4759;DHT22;2393;50.560;12.636;2022-08-19T07:55:39;19.50;99.90
4759;DHT22;2393;50.560;12.636;2022-08-19T07:58:12;19.50;99.90
4759;DHT22;2393;50.560;12.636;2022-08-19T08:00:41;19.50;99.90
4759;DHT22;2393;50.560;12.636;2022-08-19T08:03:10;19.50;99.90
4759;DHT22;2393;50.560;12.636;2022-08-19T08:05:44;19.50;99.90
4759;DHT22;2393;50.560;12.636;2022-08-19T08:08:30;19.50;99.90
4759;DHT22;2393;50.560;12.636;2022-08-19T08:11:32;19.50;99.90
4759;DHT22;2393;50.560;12.636;2022-08-19T08:14:03;19.50;99.90
4759;DHT22;2393;50.560;12.636;2022-08-19T08:16:34;19.60;99.90
4759;DHT22;2393;50.560;12.636;2022-08-19T08:19:06;19.60;99.90
4759;DHT22;2393;50.560;12.636;2022-08-19T08:21:56;19.60;99.90
4759;DHT22;2393;50.560;12.636;2022-08-19T08:24:25;19.60;99.90
4759;DHT22;2393;50.560;12.636;2022-08-19T08:26:55;19.60;99.90
4759;DHT22;2393;50.560;12.636;2022-08-19T08:29:23;19.60;99.90
4759;DHT22;2393;50.560;12.636;2022-08-19T08:32:00;19.60;99.90
4759;DHT22;2393;50.560;12.636;2022-08-19T08:34:28;19.60;99.90
4759;DHT22;2393;50.560;12.636;2022-08-19T08:36:57;19.60;99.90
4759;DHT22;2393;50.560;12.636;2022-08-19T08:39:25;19.70;99.90
4759;DHT22;2393;50.560;12.636;2022-08-19T08:41:59;19.70;99.90
4759;DHT22;2393;50.560;12.636;2022-08-19T08:44:53;19.70;99.90
4759;DHT22;2393;50.560;12.636;2022-08-19T08:47:35;19.80;99.90
4759;DHT22;2393;50.560;12.636;2022-08-19T08:50:12;19.80;99.90
4759;DHT22;2393;50.560;12.636;2022-08-19T08:52:45;19.80;99.90
4759;DHT22;2393;50.560;12.636;2022-08-19T08:55:16;19.90;99.90
4759;DHT22;2393;50.560;12.636;2022-08-19T08:57:52;19.90;99.90
4759;DHT22;2393;50.560;12.636;2022-08-19T09:00:24;19.90;99.90
4759;DHT22;2393;50.560;12.636;2022-08-19T09:02:54;19.90;99.90
4759;DHT22;2393;50.560;12.636;2022-08-19T09:05:23;19.90;99.90
4759;DHT22;2393;50.560;12.636;2022-08-19T09:08:10;19.90;99.90
4759;DHT22;2393;50.560;12.636;2022-08-19T09:10:51;20.00;99.90
4759;DHT22;2393;50.560;12.636;2022-08-19T09:13:25;20.00;99.90
4759;DHT22;2393;50.560;12.636;2022-08-19T09:16:03;19.90;99.90
4759;DHT22;2393;50.560;12.636;2022-08-19T09:18:40;19.90;99.90
4759;DHT22;2393;50.560;12.636;2022-08-19T09:21:08;19.90;99.90
4759;DHT22;2393;50.560;12.636;2022-08-19T09:23:39;19.90;99.90
4759;DHT22;2393;50.560;12.636;2022-08-19T09:26:32;19.90;99.90
4759;DHT22;2393;50.560;12.636;2022-08-19T09:29:18;19.90;99.90
4759;DHT22;2393;50.560;12.636;2022-08-19T09:31:49;19.90;99.90
4759;DHT22;2393;50.560;12.636;2022-08-19T09:34:41;20.00;99.90
4759;DHT22;2393;50.560;12.636;2022-08-19T09:37:56;20.00;99.90
4759;DHT22;2393;50.560;12.636;2022-08-19T09:40:30;20.00;99.90
4759;DHT22;2393;50.560;12.636;2022-08-19T09:43:05;20.00;99.90
4759;DHT22;2393;50.560;12.636;2022-08-19T09:45:39;20.00;99.90
4759;DHT22;2393;50.560;12.636;2022-08-19T09:48:37;20.00;99.90
4759;DHT22;2393;50.560;12.636;2022-08-19T09:51:27;20.10;99.90
4759;DHT22;2393;50.560;12.636;2022-08-19T09:54:08;20.10;99.90
4759;DHT22;2393;50.560;12.636;2022-08-19T09:56:38;20.10;99.90
4759;DHT22;2393;50.560;12.636;2022-08-19T09:59:08;20.10;99.90
4759;DHT22;2393;50.560;12.636;2022-08-19T10:01:36;20.20;99.90
4759;DHT22;2393;50.560;12.636;2022-08-19T10:04:05;20.20;99.90
4759;DHT22;2393;50.560;12.636;2022-08-19T10:06:46;20.20;99.90
4759;DHT22;2393;50.560;12.636;2022-08-19T10:09:19;20.20;99.90
4759;DHT22;2393;50.560;12.636;2022-08-19T10:12:03;20.20;99.90
4759;DHT22;2393;50.560;12.636;2022-08-19T10:14:32;20.30;99.90
4759;DHT22;2393;50.560;12.636;2022-08-19T10:17:00;20.40;99.90
4759;DHT22;2393;50.560;12.636;2022-08-19T10:19:44;20.40;99.90
4759;DHT22;2393;50.560;12.636;2022-08-19T10:22:21;20.40;99.90
4759;DHT22;2393;50.560;12.636;2022-08-19T10:24:51;20.50;99.90
4759;DHT22;2393;50.560;12.636;2022-08-19T10:27:22;20.60;99.90
4759;DHT22;2393;50.560;12.636;2022-08-19T10:29:52;20.60;99.90
4759;DHT22;2393;50.560;12.636;2022-08-19T10:32:20;20.50;99.90
4759;DHT22;2393;50.560;12.636;2022-08-19T10:35:00;20.50;99.90
4759;DHT22;2393;50.560;12.636;2022-08-19T10:37:31;20.40;99.90
4759;DHT22;2393;50.560;12.636;2022-08-19T10:40:01;20.40;99.90
4759;DHT22;2393;50.560;12.636;2022-08-19T10:42:32;20.30;99.90
4759;DHT22;2393;50.560;12.636;2022-08-19T10:45:01;20.20;99.90
4759;DHT22;2393;50.560;12.636;2022-08-19T10:47:30;20.10;99.90
4759;DHT22;2393;50.560;12.636;2022-08-19T10:49:58;20.00;99.90
4759;DHT22;2393;50.560;12.636;2022-08-19T10:52:48;20.00;99.90
4759;DHT22;2393;50.560;12.636;2022-08-19T10:55:19;19.90;99.90
4759;DHT22;2393;50.560;12.636;2022-08-19T10:58:11;19.80;99.90
4759;DHT22;2393;50.560;12.636;2022-08-19T11:00:40;19.80;99.90
4759;DHT22;2393;50.560;12.636;2022-08-19T11:03:09;19.80;99.90
4759;DHT22;2393;50.560;12.636;2022-08-19T11:05:37;19.80;99.90
4759;DHT22;2393;50.560;12.636;2022-08-19T11:08:06;19.80;99.90
4759;DHT22;2393;50.560;12.636;2022-08-19T11:10:50;19.90;99.90
4759;DHT22;2393;50.560;12.636;2022-08-19T11:13:21;19.90;99.90
4759;DHT22;2393;50.560;12.636;2022-08-19T11:15:57;20.00;99.90
4759;DHT22;2393;50.560;12.636;2022-08-19T11:18:32;20.20;99.90
4759;DHT22;2393;50.560;12.636;2022-08-19T11:21:09;20.30;99.90
4759;DHT22;2393;50.560;12.636;2022-08-19T11:23:37;20.40;99.90
4759;DHT22;2393;50.560;12.636;2022-08-19T11:26:06;20.50;99.90
4759;DHT22;2393;50.560;12.636;2022-08-19T11:28:36;20.50;99.90
4759;DHT22;2393;50.560;12.636;2022-08-19T11:31:04;20.50;99.90
4759;DHT22;2393;50.560;12.636;2022-08-19T11:33:36;20.50;99.90
4759;DHT22;2393;50.560;12.636;2022-08-19T11:36:04;20.50;99.90
4759;DHT22;2393;50.560;12.636;2022-08-19T11:38:34;20.50;99.90
4759;DHT22;2393;50.560;12.636;2022-08-19T11:41:04;20.40;99.90
4759;DHT22;2393;50.560;12.636;2022-08-19T11:43:34;20.30;99.90
4759;DHT22;2393;50.560;12.636;2022-08-19T11:46:06;20.20;99.90
4759;DHT22;2393;50.560;12.636;2022-08-19T11:48:35;20.20;99.90
4759;DHT22;2393;50.560;12.636;2022-08-19T11:51:05;20.10;99.90
4759;DHT22;2393;50.560;12.636;2022-08-19T11:53:34;20.00;99.90
4759;DHT22;2393;50.560;12.636;2022-08-19T11:56:03;20.00;99.90
4759;DHT22;2393;50.560;12.636;2022-08-19T11:58:32;20.00;99.90
4759;DHT22;2393;50.560;12.636;2022-08-19T12:01:00;19.90;99.90
4759;DHT22;2393;50.560;12.636;2022-08-19T12:03:30;19.90;99.90
4759;DHT22;2393;50.560;12.636;2022-08-19T12:05:58;19.90;99.90
4759;DHT22;2393;50.560;12.636;2022-08-19T12:08:26;19.80;99.90
4759;DHT22;2393;50.560;12.636;2022-08-19T12:10:54;19.80;99.90
4759;DHT22;2393;50.560;12.636;2022-08-19T12:13:22;19.80;99.90
4759;DHT22;2393;50.560;12.636;2022-08-19T12:15:50;19.80;99.90
4759;DHT22;2393;50.560;12.636;2022-08-19T12:18:19;19.70;99.90
4759;DHT22;2393;50.560;12.636;2022-08-19T12:20:50;19.70;99.90
4759;DHT22;2393;50.560;12.636;2022-08-19T12:23:19;19.60;99.90
4759;DHT22;2393;50.560;12.636;2022-08-19T12:25:48;19.50;99.90
4759;DHT22;2393;50.560;12.636;2022-08-19T12:28:19;19.40;99.90
4759;DHT22;2393;50.560;12.636;2022-08-19T12:30:47;19.40;99.90
4759;DHT22;2393;50.560;12.636;2022-08-19T12:33:17;19.30;99.90
4759;DHT22;2393;50.560;12.636;2022-08-19T12:35:46;19.30;99.90
4759;DHT22;2393;50.560;12.636;2022-08-19T12:38:16;19.30;99.90
4759;DHT22;2393;50.560;12.636;2022-08-19T12:40:45;19.30;99.90
4759;DHT22;2393;50.560;12.636;2022-08-19T12:43:14;19.30;99.90
4759;DHT22;2393;50.560;12.636;2022-08-19T12:45:43;19.30;99.90
4759;DHT22;2393;50.560;12.636;2022-08-19T12:48:12;19.20;99.90
4759;DHT22;2393;50.560;12.636;2022-08-19T12:51:01;19.30;99.90
4759;DHT22;2393;50.560;12.636;2022-08-19T12:53:34;19.30;99.90
4759;DHT22;2393;50.560;12.636;2022-08-19T12:56:05;19.20;99.90
4759;DHT22;2393;50.560;12.636;2022-08-19T12:58:38;19.20;99.90
4759;DHT22;2393;50.560;12.636;2022-08-19T13:01:16;19.20;99.90
4759;DHT22;2393;50.560;12.636;2022-08-19T13:03:50;19.20;99.90
4759;DHT22;2393;50.560;12.636;2022-08-19T13:06:19;19.10;99.90
4759;DHT22;2393;50.560;12.636;2022-08-19T13:08:49;19.10;99.90
4759;DHT22;2393;50.560;12.636;2022-08-19T13:11:22;19.10;99.90
4759;DHT22;2393;50.560;12.636;2022-08-19T13:13:52;19.10;99.90
4759;DHT22;2393;50.560;12.636;2022-08-19T13:16:21;19.10;99.90
4759;DHT22;2393;50.560;12.636;2022-08-19T13:18:49;19.10;99.90
4759;DHT22;2393;50.560;12.636;2022-08-19T13:21:20;19.20;99.90
4759;DHT22;2393;50.560;12.636;2022-08-19T13:23:51;19.20;99.90
4759;DHT22;2393;50.560;12.636;2022-08-19T13:26:20;19.10;99.90
4759;DHT22;2393;50.560;12.636;2022-08-19T13:28:49;19.10;99.90
4759;DHT22;2393;50.560;12.636;2022-08-19T13:31:39;19.10;99.90
4759;DHT22;2393;50.560;12.636;2022-08-19T13:34:30;19.10;99.90
4759;DHT22;2393;50.560;12.636;2022-08-19T13:37:00;19.00;99.90
4759;DHT22;2393;50.560;12.636;2022-08-19T13:39:31;19.00;99.90
4759;DHT22;2393;50.560;12.636;2022-08-19T13:42:00;19.00;99.90
4759;DHT22;2393;50.560;12.636;2022-08-19T13:44:29;19.00;99.90
4759;DHT22;2393;50.560;12.636;2022-08-19T13:47:00;19.00;99.90
4759;DHT22;2393;50.560;12.636;2022-08-19T13:49:33;19.00;99.90
4759;DHT22;2393;50.560;12.636;2022-08-19T13:52:03;19.10;99.90
4759;DHT22;2393;50.560;12.636;2022-08-19T13:54:34;19.10;99.90
4759;DHT22;2393;50.560;12.636;2022-08-19T13:57:02;19.10;99.90
4759;DHT22;2393;50.560;12.636;2022-08-19T13:59:31;19.10;99.90
4759;DHT22;2393;50.560;12.636;2022-08-19T14:02:00;19.10;99.90
4759;DHT22;2393;50.560;12.636;2022-08-19T14:04:30;19.10;99.90
4759;DHT22;2393;50.560;12.636;2022-08-19T14:06:59;19.10;99.90
4759;DHT22;2393;50.560;12.636;2022-08-19T14:09:28;19.10;99.90
4759;DHT22;2393;50.560;12.636;2022-08-19T14:11:57;19.10;99.90
4759;DHT22;2393;50.560;12.636;2022-08-19T14:14:26;19.20;99.90
4759;DHT22;2393;50.560;12.636;2022-08-19T14:16:56;19.20;99.90
4759;DHT22;2393;50.560;12.636;2022-08-19T14:19:24;19.20;99.90
4759;DHT22;2393;50.560;12.636;2022-08-19T14:21:56;19.20;99.90
4759;DHT22;2393;50.560;12.636;2022-08-19T14:24:26;19.20;99.90
4759;DHT22;2393;50.560;12.636;2022-08-19T14:26:54;19.20;99.90
4759;DHT22;2393;50.560;12.636;2022-08-19T14:29:24;19.20;99.90
4759;DHT22;2393;50.560;12.636;2022-08-19T14:31:54;19.30;99.90
4759;DHT22;2393;50.560;12.636;2022-08-19T14:34:23;19.20;99.90
4759;DHT22;2393;50.560;12.636;2022-08-19T14:36:52;19.20;99.90
4759;DHT22;2393;50.560;12.636;2022-08-19T14:39:20;19.20;99.90
4759;DHT22;2393;50.560;12.636;2022-08-19T14:41:48;19.30;99.90
4759;DHT22;2393;50.560;12.636;2022-08-19T14:44:17;19.30;99.90
4759;DHT22;2393;50.560;12.636;2022-08-19T14:46:46;19.30;99.90
4759;DHT22;2393;50.560;12.636;2022-08-19T14:49:16;19.30;99.90
4759;DHT22;2393;50.560;12.636;2022-08-19T14:51:44;19.30;99.90
4759;DHT22;2393;50.560;12.636;2022-08-19T14:54:14;19.30;99.90
4759;DHT22;2393;50.560;12.636;2022-08-19T14:56:43;19.20;99.90
4759;DHT22;2393;50.560;12.636;2022-08-19T14:59:11;19.20;99.90
4759;DHT22;2393;50.560;12.636;2022-08-19T15:01:39;19.30;99.90
4759;DHT22;2393;50.560;12.636;2022-08-19T15:04:09;19.30;99.90
4759;DHT22;2393;50.560;12.636;2022-08-19T15:06:37;19.30;99.90
4759;DHT22;2393;50.560;12.636;2022-08-19T15:09:06;19.30;99.90
4759;DHT22;2393;50.560;12.636;2022-08-19T15:11:35;19.30;99.90
4759;DHT22;2393;50.560;12.636;2022-08-19T15:14:05;19.30;99.90
4759;DHT22;2393;50.560;12.636;2022-08-19T15:16:33;19.30;99.90
4759;DHT22;2393;50.560;12.636;2022-08-19T15:19:02;19.30;99.90
4759;DHT22;2393;50.560;12.636;2022-08-19T15:21:32;19.40;99.90
4759;DHT22;2393;50.560;12.636;2022-08-19T15:24:00;19.40;99.90
4759;DHT22;2393;50.560;12.636;2022-08-19T15:26:28;19.40;99.90
4759;DHT22;2393;50.560;12.636;2022-08-19T15:28:59;19.40;99.90
4759;DHT22;2393;50.560;12.636;2022-08-19T15:31:28;19.40;99.90
4759;DHT22;2393;50.560;12.636;2022-08-19T15:34:05;19.40;99.90
4759;DHT22;2393;50.560;12.636;2022-08-19T15:36:34;19.40;99.90
4759;DHT22;2393;50.560;12.636;2022-08-19T15:39:05;19.50;99.90
4759;DHT22;2393;50.560;12.636;2022-08-19T15:41:36;19.50;99.90
4759;DHT22;2393;50.560;12.636;2022-08-19T15:44:18;19.50;99.90
4759;DHT22;2393;50.560;12.636;2022-08-19T15:46:48;19.60;99.90
4759;DHT22;2393;50.560;12.636;2022-08-19T15:49:18;19.60;99.90
4759;DHT22;2393;50.560;12.636;2022-08-19T15:51:48;19.50;99.90
4759;DHT22;2393;50.560;12.636;2022-08-19T15:54:19;19.50;99.90
4759;DHT22;2393;50.560;12.636;2022-08-19T15:56:48;19.50;99.90
4759;DHT22;2393;50.560;12.636;2022-08-19T15:59:36;19.50;99.90
4759;DHT22;2393;50.560;12.636;2022-08-19T16:02:30;19.50;99.90
4759;DHT22;2393;50.560;12.636;2022-08-19T16:05:21;19.50;99.90
4759;DHT22;2393;50.560;12.636;2022-08-19T16:08:09;19.50;99.90
4759;DHT22;2393;50.560;12.636;2022-08-19T16:10:38;19.40;99.90
4759;DHT22;2393;50.560;12.636;2022-08-19T16:13:06;19.40;99.90
4759;DHT22;2393;50.560;12.636;2022-08-19T16:15:36;19.40;99.90